Time;durP1;ratioP1;P1;durP2;ratioP2;P2;SDS_P1;SDS_P2;PMS_P1;PMS_P2;Temp;Humidity;BMP_temperature;BMP_pressure;BME280_temperature;BME280_humidity;BME280_pressure;Samples;Min_cycle;Max_cycle;Signal;HPM_P1;HPM_P2
2023/10/22 00:01:17;;;;;;;0.10;0.10;;;;;;;;;;4886079;29;20048;-93
2023/10/22 00:03:43;;;;;;;0.10;0.10;;;;;;;;;;4886282;29;20076;-93
2023/10/22 00:06:09;;;;;;;0.10;0.10;;;;;;;;;;4886409;29;20381;-91
2023/10/22 00:08:35;;;;;;;0.10;0.10;;;;;;;;;;4885748;29;20051;-93
2023/10/22 00:11:01;;;;;;;0.10;0.10;;;;;;;;;;4885838;29;20044;-92
2023/10/22 00:13:27;;;;;;;0.10;0.10;;;;;;;;;;4901185;29;20466;-92
2023/10/22 00:15:53;;;;;;;0.10;0.10;;;;;;;;;;4886130;29;20130;-93
2023/10/22 00:18:19;;;;;;;0.10;0.10;;;;;;;;;;4886191;29;20394;-94
2023/10/22 00:20:45;;;;;;;0.10;0.10;;;;;;;;;;4901982;29;20394;-93
2023/10/22 00:23:12;;;;;;;0.20;0.20;;;;;;;;;;4885737;29;20549;-92
2023/10/22 00:25:38;;;;;;;0.10;0.10;;;;;;;;;;4885998;29;20048;-95
2023/10/22 00:28:04;;;;;;;0.10;0.10;;;;;;;;;;4885557;29;20115;-94
2023/10/22 00:30:30;;;;;;;0.10;0.10;;;;;;;;;;4885781;29;20052;-95
2023/10/22 00:32:56;;;;;;;0.55;0.55;;;;;;;;;;4885929;29;20139;-95
2023/10/22 00:35:22;;;;;;;0.10;0.10;;;;;;;;;;4885744;29;20051;-93
2023/10/22 00:37:48;;;;;;;0.10;0.10;;;;;;;;;;4886090;29;20040;-93
2023/10/22 00:40:14;;;;;;;0.10;0.10;;;;;;;;;;4885885;29;20071;-94
2023/10/22 00:42:40;;;;;;;0.10;0.10;;;;;;;;;;4885185;29;20044;-94
2023/10/22 00:45:07;;;;;;;0.10;0.10;;;;;;;;;;4901180;29;20044;-95
2023/10/22 00:47:33;;;;;;;0.10;0.10;;;;;;;;;;4885615;29;20406;-93
2023/10/22 00:49:59;;;;;;;0.10;0.10;;;;;;;;;;4901239;29;20055;-94
2023/10/22 00:52:26;;;;;;;0.10;0.10;;;;;;;;;;4884716;29;20044;-94
2023/10/22 00:54:52;;;;;;;0.10;0.10;;;;;;;;;;4886125;29;20040;-94
2023/10/22 00:57:18;;;;;;;0.13;0.13;;;;;;;;;;4887532;29;20048;-94
2023/10/22 00:59:44;;;;;;;0.10;0.10;;;;;;;;;;4902944;29;20056;-94
2023/10/22 01:02:10;;;;;;;0.20;0.20;;;;;;;;;;4886262;29;20140;-96
2023/10/22 01:04:36;;;;;;;0.10;0.10;;;;;;;;;;4885187;29;20036;-93
2023/10/22 01:07:04;;;;;;;0.10;0.10;;;;;;;;;;4885039;29;20044;-93
2023/10/22 01:09:30;;;;;;;0.17;0.17;;;;;;;;;;4885166;29;20096;-92
2023/10/22 01:12:01;;;;;;;0.10;0.10;;;;;;;;;;4884870;29;20039;-93
2023/10/22 01:14:27;;;;;;;0.10;0.10;;;;;;;;;;4885126;29;20482;-92
2023/10/22 01:16:53;;;;;;;0.10;0.10;;;;;;;;;;4900717;29;20087;-92
2023/10/22 01:19:19;;;;;;;0.10;0.10;;;;;;;;;;4900591;29;20126;-92
2023/10/22 01:21:45;;;;;;;0.10;0.10;;;;;;;;;;4885166;29;20126;-92
2023/10/22 01:24:11;;;;;;;0.10;0.10;;;;;;;;;;4884719;29;20043;-94
2023/10/22 01:26:43;;;;;;;0.25;0.25;;;;;;;;;;4900250;29;20066;-94
2023/10/22 01:29:12;;;;;;;0.10;0.10;;;;;;;;;;4884939;29;20059;-92
2023/10/22 01:31:38;;;;;;;0.10;0.10;;;;;;;;;;4900505;29;20054;-92
2023/10/22 01:34:04;;;;;;;0.10;0.10;;;;;;;;;;4900190;29;20044;-91
2023/10/22 01:36:30;;;;;;;0.10;0.10;;;;;;;;;;4884680;29;20047;-92
2023/10/22 01:38:57;;;;;;;0.10;0.10;;;;;;;;;;4900347;29;20066;-93
2023/10/22 01:41:23;;;;;;;0.20;0.20;;;;;;;;;;4884885;29;20044;-94
2023/10/22 01:43:50;;;;;;;0.10;0.10;;;;;;;;;;4884987;29;20121;-93
2023/10/22 01:46:16;;;;;;;0.10;0.10;;;;;;;;;;4884656;29;20044;-94
2023/10/22 01:48:42;;;;;;;0.10;0.10;;;;;;;;;;4884819;29;20047;-93
2023/10/22 01:51:08;;;;;;;0.10;0.10;;;;;;;;;;4884614;29;20040;-93
2023/10/22 01:53:34;;;;;;;0.20;0.20;;;;;;;;;;4884405;29;20124;-93
2023/10/22 01:56:00;;;;;;;0.10;0.10;;;;;;;;;;4884689;29;20191;-93
2023/10/22 01:58:26;;;;;;;0.10;0.10;;;;;;;;;;4884870;29;20131;-92
2023/10/22 02:01:02;;;;;;;0.10;0.10;;;;;;;;;;4900429;29;20100;-94
2023/10/22 02:03:28;;;;;;;0.10;0.10;;;;;;;;;;4885753;29;20051;-93
2023/10/22 02:05:55;;;;;;;0.17;0.17;;;;;;;;;;4888538;29;20040;-94
2023/10/22 02:08:22;;;;;;;0.10;0.10;;;;;;;;;;4888480;29;20144;-94
2023/10/22 02:10:48;;;;;;;0.20;0.20;;;;;;;;;;4888067;29;20505;-93
2023/10/22 02:13:14;;;;;;;0.10;0.10;;;;;;;;;;4887928;29;20498;-94
2023/10/22 02:15:40;;;;;;;0.10;0.10;;;;;;;;;;4903708;29;20509;-92
2023/10/22 02:18:06;;;;;;;0.10;0.10;;;;;;;;;;4903364;29;20044;-93
2023/10/22 02:20:33;;;;;;;0.20;0.20;;;;;;;;;;4887757;29;20036;-92
2023/10/22 02:23:00;;;;;;;0.10;0.10;;;;;;;;;;4888079;29;20165;-93
2023/10/22 02:25:27;;;;;;;0.10;0.10;;;;;;;;;;4888040;29;20048;-93
2023/10/22 02:27:53;;;;;;;0.10;0.10;;;;;;;;;;4903183;29;20071;-93
2023/10/22 02:30:19;;;;;;;0.10;0.10;;;;;;;;;;4887846;29;20048;-93
2023/10/22 02:32:45;;;;;;;0.10;0.10;;;;;;;;;;4887618;29;20048;-94
2023/10/22 02:35:11;;;;;;;0.10;0.10;;;;;;;;;;4887423;29;20556;-93
2023/10/22 02:37:37;;;;;;;0.10;0.10;;;;;;;;;;4887652;29;20044;-93
2023/10/22 02:40:04;;;;;;;0.10;0.10;;;;;;;;;;4887467;29;20069;-92
2023/10/22 02:42:30;;;;;;;0.10;0.10;;;;;;;;;;4903057;29;20048;-92
2023/10/22 02:44:56;;;;;;;0.10;0.10;;;;;;;;;;4903197;29;20043;-93
2023/10/22 02:47:22;;;;;;;0.10;0.10;;;;;;;;;;4903110;29;20508;-94
2023/10/22 02:49:48;;;;;;;0.10;0.10;;;;;;;;;;4902777;29;20040;-92
2023/10/22 02:52:14;;;;;;;0.10;0.10;;;;;;;;;;4887435;29;20055;-93
2023/10/22 02:54:40;;;;;;;0.10;0.10;;;;;;;;;;4902947;29;20048;-92
2023/10/22 02:57:06;;;;;;;0.10;0.10;;;;;;;;;;4902813;29;20084;-92
2023/10/22 02:59:32;;;;;;;0.20;0.20;;;;;;;;;;4887021;29;20076;-92
2023/10/22 03:01:58;;;;;;;0.10;0.10;;;;;;;;;;4887212;29;20080;-92
2023/10/22 03:04:24;;;;;;;0.10;0.10;;;;;;;;;;4886918;29;20135;-92
2023/10/22 03:06:50;;;;;;;0.10;0.10;;;;;;;;;;4902507;29;20040;-92
2023/10/22 03:09:17;;;;;;;0.10;0.10;;;;;;;;;;4886982;29;20414;-92
2023/10/22 03:11:43;;;;;;;0.10;0.10;;;;;;;;;;4886829;29;20047;-94
2023/10/22 03:14:09;;;;;;;0.10;0.10;;;;;;;;;;4902002;29;20048;-93
2023/10/22 03:16:35;;;;;;;0.10;0.10;;;;;;;;;;4886752;29;20076;-92
2023/10/22 03:19:01;;;;;;;0.10;0.10;;;;;;;;;;4887009;29;20131;-93
2023/10/22 03:21:28;;;;;;;0.10;0.10;;;;;;;;;;4887207;29;20108;-93
2023/10/22 03:23:54;;;;;;;0.10;0.10;;;;;;;;;;4886844;29;20075;-92
2023/10/22 03:26:20;;;;;;;0.10;0.10;;;;;;;;;;4902482;29;20266;-93
2023/10/22 03:28:46;;;;;;;0.10;0.10;;;;;;;;;;4902300;29;20208;-93
2023/10/22 03:31:13;;;;;;;0.10;0.10;;;;;;;;;;4902536;29;20054;-92
2023/10/22 03:33:39;;;;;;;0.20;0.20;;;;;;;;;;4886400;29;20099;-92
2023/10/22 03:36:05;;;;;;;0.10;0.10;;;;;;;;;;4886585;29;20048;-93
2023/10/22 03:38:31;;;;;;;0.82;0.35;;;;;;;;;;4886608;29;20132;-92
2023/10/22 03:40:58;;;;;;;0.10;0.10;;;;;;;;;;4886503;29;20036;-92
2023/10/22 03:43:25;;;;;;;0.35;0.35;;;;;;;;;;4886400;29;20508;-92
2023/10/22 03:45:51;;;;;;;0.10;0.10;;;;;;;;;;4886049;29;20055;-92
2023/10/22 03:48:17;;;;;;;0.10;0.10;;;;;;;;;;4886190;29;20135;-92
2023/10/22 03:50:44;;;;;;;0.15;0.15;;;;;;;;;;4885958;29;20135;-92
2023/10/22 03:53:11;;;;;;;0.20;0.20;;;;;;;;;;4886119;29;20052;-92
2023/10/22 03:55:37;;;;;;;0.10;0.10;;;;;;;;;;4901552;29;20135;-91
2023/10/22 03:58:03;;;;;;;0.10;0.10;;;;;;;;;;4886246;29;20068;-92
2023/10/22 04:00:29;;;;;;;0.10;0.10;;;;;;;;;;4886006;29;20044;-91
2023/10/22 04:02:55;;;;;;;0.10;0.10;;;;;;;;;;4886312;29;20055;-93
2023/10/22 04:05:21;;;;;;;0.10;0.10;;;;;;;;;;4886489;29;20104;-94
2023/10/22 04:07:48;;;;;;;0.10;0.10;;;;;;;;;;4901817;29;20112;-91
2023/10/22 04:10:15;;;;;;;0.10;0.10;;;;;;;;;;4886149;29;20134;-93
2023/10/22 04:12:42;;;;;;;0.10;0.10;;;;;;;;;;4886066;29;20509;-92
2023/10/22 04:15:08;;;;;;;0.10;0.10;;;;;;;;;;4886126;29;20119;-93
2023/10/22 04:17:35;;;;;;;0.40;0.40;;;;;;;;;;4886030;29;20180;-93
2023/10/22 04:20:01;;;;;;;0.10;0.10;;;;;;;;;;4886217;29;20036;-93
2023/10/22 04:22:27;;;;;;;0.10;0.10;;;;;;;;;;4885719;29;20486;-92
2023/10/22 04:24:53;;;;;;;0.10;0.10;;;;;;;;;;4885890;29;20054;-92
2023/10/22 04:27:19;;;;;;;0.20;0.20;;;;;;;;;;4900546;29;20063;-93
2023/10/22 04:29:46;;;;;;;0.10;0.10;;;;;;;;;;4886899;29;20040;-93
2023/10/22 04:32:16;;;;;;;0.10;0.10;;;;;;;;;;4886146;29;20044;-91
2023/10/22 04:34:42;;;;;;;0.22;0.22;;;;;;;;;;4886311;29;20095;-92
2023/10/22 04:37:10;;;;;;;0.10;0.10;;;;;;;;;;4885987;29;20041;-91
2023/10/22 04:39:36;;;;;;;0.10;0.10;;;;;;;;;;4886003;29;20479;-92
2023/10/22 04:42:02;;;;;;;0.10;0.10;;;;;;;;;;4885558;29;20040;-92
2023/10/22 04:44:28;;;;;;;0.10;0.10;;;;;;;;;;4885612;29;20434;-92
2023/10/22 04:46:54;;;;;;;0.10;0.10;;;;;;;;;;4901188;29;20047;-91
2023/10/22 04:49:20;;;;;;;0.10;0.10;;;;;;;;;;4901321;29;20455;-92
2023/10/22 04:51:46;;;;;;;0.10;0.10;;;;;;;;;;4885518;29;20040;-92
2023/10/22 04:54:13;;;;;;;0.10;0.10;;;;;;;;;;4885306;29;20040;-92
2023/10/22 04:56:39;;;;;;;0.10;0.10;;;;;;;;;;4885449;29;20406;-93
2023/10/22 04:59:05;;;;;;;0.10;0.10;;;;;;;;;;4885324;29;20044;-93
2023/10/22 05:01:31;;;;;;;0.10;0.10;;;;;;;;;;4885182;29;20040;-93
2023/10/22 05:03:57;;;;;;;0.10;0.10;;;;;;;;;;4885173;29;20051;-92
2023/10/22 05:06:23;;;;;;;0.10;0.10;;;;;;;;;;4885124;29;20050;-92
2023/10/22 05:08:49;;;;;;;0.10;0.10;;;;;;;;;;4900473;29;20464;-91
2023/10/22 05:11:15;;;;;;;0.10;0.10;;;;;;;;;;4884704;29;20040;-92
2023/10/22 05:13:41;;;;;;;0.10;0.10;;;;;;;;;;4885075;29;20048;-91
2023/10/22 05:16:09;;;;;;;0.10;0.10;;;;;;;;;;4884877;29;20059;-92
2023/10/22 05:18:35;;;;;;;0.10;0.10;;;;;;;;;;4885212;29;20104;-91
2023/10/22 05:21:04;;;;;;;0.10;0.10;;;;;;;;;;4900446;29;20092;-92
2023/10/22 05:23:30;;;;;;;0.10;0.10;;;;;;;;;;4885268;29;20058;-91
2023/10/22 05:26:09;;;;;;;0.10;0.10;;;;;;;;;;4884710;29;20047;-92
2023/10/22 05:28:35;;;;;;;0.10;0.10;;;;;;;;;;4884686;29;20499;-92
2023/10/22 05:31:02;;;;;;;0.10;0.10;;;;;;;;;;4884693;29;20482;-91
2023/10/22 05:33:28;;;;;;;0.10;0.10;;;;;;;;;;4900456;29;20048;-92
2023/10/22 05:35:54;;;;;;;0.10;0.10;;;;;;;;;;4900254;29;20074;-91
2023/10/22 05:38:20;;;;;;;0.10;0.10;;;;;;;;;;4884435;29;20043;-91
2023/10/22 05:40:46;;;;;;;0.10;0.10;;;;;;;;;;4884914;29;20405;-91
2023/10/22 05:43:12;;;;;;;0.10;0.10;;;;;;;;;;4900390;29;20047;-92
2023/10/22 05:45:38;;;;;;;0.10;0.10;;;;;;;;;;4884640;29;20051;-93
2023/10/22 05:48:04;;;;;;;0.20;0.20;;;;;;;;;;4884878;29;20068;-92
2023/10/22 05:50:30;;;;;;;0.20;0.20;;;;;;;;;;4900251;29;20498;-93
2023/10/22 05:52:56;;;;;;;0.10;0.10;;;;;;;;;;4884529;29;20041;-91
2023/10/22 05:55:22;;;;;;;0.10;0.10;;;;;;;;;;4884780;29;20127;-92
2023/10/22 05:57:48;;;;;;;0.10;0.10;;;;;;;;;;4900586;29;20080;-92
2023/10/22 06:00:14;;;;;;;0.10;0.10;;;;;;;;;;4899915;29;20112;-89
2023/10/22 06:02:46;;;;;;;0.45;0.30;;;;;;;;;;4888036;29;20052;-96
2023/10/22 06:05:12;;;;;;;0.10;0.10;;;;;;;;;;4885714;29;20048;-91
2023/10/22 06:07:39;;;;;;;0.10;0.10;;;;;;;;;;4884206;29;20104;-92
2023/10/22 06:10:05;;;;;;;0.10;0.10;;;;;;;;;;4883851;29;20040;-90
2023/10/22 06:12:31;;;;;;;0.10;0.10;;;;;;;;;;4899221;29;20142;-88
2023/10/22 06:15:03;;;;;;;0.20;0.10;;;;;;;;;;4899002;29;20051;-90
2023/10/22 06:17:29;;;;;;;0.10;0.10;;;;;;;;;;4884236;29;20044;-89
2023/10/22 06:19:55;;;;;;;0.10;0.10;;;;;;;;;;4898886;29;20044;-89
2023/10/22 06:22:21;;;;;;;0.10;0.10;;;;;;;;;;4883051;29;20044;-89
2023/10/22 06:24:47;;;;;;;0.10;0.10;;;;;;;;;;4899134;29;20044;-89
2023/10/22 06:27:13;;;;;;;0.10;0.10;;;;;;;;;;4883023;29;20116;-89
2023/10/22 06:29:39;;;;;;;0.10;0.10;;;;;;;;;;4898765;29;20048;-89
2023/10/22 06:32:05;;;;;;;0.10;0.10;;;;;;;;;;4898638;29;20040;-89
2023/10/22 06:34:31;;;;;;;0.10;0.10;;;;;;;;;;4882860;29;20136;-88
2023/10/22 06:36:57;;;;;;;0.10;0.10;;;;;;;;;;4882960;29;20161;-88
2023/10/22 06:39:23;;;;;;;0.10;0.10;;;;;;;;;;4883094;29;20047;-89
2023/10/22 06:41:49;;;;;;;0.20;0.20;;;;;;;;;;4883081;29;20425;-88
2023/10/22 06:44:15;;;;;;;0.10;0.10;;;;;;;;;;4898952;29;20044;-89
2023/10/22 06:46:41;;;;;;;0.10;0.10;;;;;;;;;;4883236;29;20090;-89
2023/10/22 06:49:07;;;;;;;0.10;0.10;;;;;;;;;;4899332;29;20126;-88
2023/10/22 06:51:33;;;;;;;0.10;0.10;;;;;;;;;;4886591;29;20048;-89
2023/10/22 06:53:59;;;;;;;0.10;0.10;;;;;;;;;;4902041;29;20413;-89
2023/10/22 06:56:25;;;;;;;0.10;0.10;;;;;;;;;;4886519;29;20046;-89
2023/10/22 06:58:51;;;;;;;0.10;0.10;;;;;;;;;;4902096;29;20044;-90
2023/10/22 07:01:17;;;;;;;0.10;0.10;;;;;;;;;;4902468;29;20047;-90
2023/10/22 07:03:44;;;;;;;0.10;0.10;;;;;;;;;;4902371;29;20107;-90
2023/10/22 07:06:10;;;;;;;0.10;0.10;;;;;;;;;;4902436;29;20055;-91
2023/10/22 07:08:36;;;;;;;0.10;0.10;;;;;;;;;;4887446;29;20358;-92
2023/10/22 07:11:02;;;;;;;0.10;0.10;;;;;;;;;;4887726;29;20040;-94
2023/10/22 07:13:28;;;;;;;0.10;0.10;;;;;;;;;;4886608;29;20505;-90
2023/10/22 07:15:54;;;;;;;0.10;0.10;;;;;;;;;;4902432;29;20121;-92
2023/10/22 07:18:21;;;;;;;0.10;0.10;;;;;;;;;;4886957;29;20135;-94
2023/10/22 07:20:47;;;;;;;0.10;0.10;;;;;;;;;;4886998;29;20103;-91
2023/10/22 07:26:05;;;;;;;0.10;0.10;;;;;;;;;;5416802;23;20060;-95
2023/10/22 07:28:31;;;;;;;0.20;0.20;;;;;;;;;;4899068;29;20057;-92
2023/10/22 07:31:00;;;;;;;0.10;0.10;;;;;;;;;;4868512;29;20059;-94
2023/10/22 07:33:27;;;;;;;0.10;0.10;;;;;;;;;;4868003;29;20059;-92
2023/10/22 07:35:56;;;;;;;0.10;0.10;;;;;;;;;;4868337;29;20051;-90
2023/10/22 07:38:23;;;;;;;0.10;0.10;;;;;;;;;;4870672;29;20041;-92
2023/10/22 07:40:50;;;;;;;0.10;0.10;;;;;;;;;;4866124;29;20045;-92
2023/10/22 07:43:16;;;;;;;0.10;0.10;;;;;;;;;;4875378;29;20044;-92
2023/10/22 07:45:42;;;;;;;0.10;0.10;;;;;;;;;;4867625;29;20131;-93
2023/10/22 07:48:08;;;;;;;0.30;0.30;;;;;;;;;;4883390;29;20180;-93
2023/10/22 07:50:34;;;;;;;0.20;0.20;;;;;;;;;;4867842;29;20040;-93
2023/10/22 07:53:00;;;;;;;0.10;0.10;;;;;;;;;;4867488;29;20439;-94
2023/10/22 07:55:26;;;;;;;0.10;0.10;;;;;;;;;;4866969;29;20048;-89
2023/10/22 07:57:54;;;;;;;0.20;0.20;;;;;;;;;;4868977;29;20123;-92
2023/10/22 08:00:20;;;;;;;0.13;0.13;;;;;;;;;;4866914;29;20100;-91
2023/10/22 08:02:46;;;;;;;0.20;0.20;;;;;;;;;;4866425;29;20048;-90
2023/10/22 08:05:11;;;;;;;0.20;0.20;;;;;;;;;;4866810;29;20063;-90
2023/10/22 08:07:37;;;;;;;0.10;0.10;;;;;;;;;;4881934;29;20132;-90
2023/10/22 08:10:04;;;;;;;0.10;0.10;;;;;;;;;;4866834;29;20040;-90
2023/10/22 08:12:30;;;;;;;0.10;0.10;;;;;;;;;;4881973;29;20048;-90
2023/10/22 08:14:56;;;;;;;0.10;0.10;;;;;;;;;;4866452;29;20048;-89
2023/10/22 08:17:22;;;;;;;0.10;0.10;;;;;;;;;;4866869;29;20131;-89
2023/10/22 08:19:48;;;;;;;0.10;0.10;;;;;;;;;;4866794;29;20139;-90
2023/10/22 08:22:14;;;;;;;0.10;0.10;;;;;;;;;;4867070;29;20092;-91
2023/10/22 08:24:40;;;;;;;0.10;0.10;;;;;;;;;;4867509;29;20037;-89
2023/10/22 08:27:06;;;;;;;0.10;0.10;;;;;;;;;;4866125;29;20391;-88
2023/10/22 08:29:32;;;;;;;0.10;0.10;;;;;;;;;;4866657;29;20045;-92
2023/10/22 08:31:58;;;;;;;0.10;0.10;;;;;;;;;;4867168;29;20067;-93
2023/10/22 08:34:24;;;;;;;0.20;0.20;;;;;;;;;;4884319;29;20490;-88
2023/10/22 08:36:50;;;;;;;0.10;0.10;;;;;;;;;;4866110;29;20040;-87
2023/10/22 08:39:16;;;;;;;0.10;0.10;;;;;;;;;;4866244;29;20043;-86
2023/10/22 08:41:45;;;;;;;0.10;0.10;;;;;;;;;;4881513;29;20076;-87
2023/10/22 08:44:11;;;;;;;0.20;0.20;;;;;;;;;;4866117;29;20153;-86
2023/10/22 08:46:37;;;;;;;0.10;0.10;;;;;;;;;;4865882;29;20048;-87
2023/10/22 08:49:05;;;;;;;0.10;0.10;;;;;;;;;;4865819;29;20104;-88
2023/10/22 08:51:31;;;;;;;0.10;0.10;;;;;;;;;;4866279;29;20479;-89
2023/10/22 08:53:57;;;;;;;0.10;0.10;;;;;;;;;;4865703;29;20075;-89
2023/10/22 08:56:26;;;;;;;0.10;0.10;;;;;;;;;;4867060;29;20077;-96
2023/10/22 08:58:52;;;;;;;0.10;0.10;;;;;;;;;;4869129;29;20460;-95
2023/10/22 09:01:18;;;;;;;0.50;0.50;;;;;;;;;;4867243;29;20554;-90
2023/10/22 09:03:44;;;;;;;0.10;0.10;;;;;;;;;;4866282;29;20044;-90
2023/10/22 09:06:10;;;;;;;0.10;0.10;;;;;;;;;;4881640;29;20103;-90
2023/10/22 09:08:43;;;;;;;0.10;0.10;;;;;;;;;;4881524;29;20490;-89
2023/10/22 09:11:13;;;;;;;0.13;0.13;;;;;;;;;;4866548;29;20040;-91
2023/10/22 09:13:39;;;;;;;0.10;0.10;;;;;;;;;;4881303;29;20457;-92
2023/10/22 09:16:06;;;;;;;0.10;0.10;;;;;;;;;;4881927;29;20044;-91
2023/10/22 09:18:32;;;;;;;0.10;0.10;;;;;;;;;;4866486;29;20525;-92
2023/10/22 09:21:07;;;;;;;0.10;0.10;;;;;;;;;;4867202;29;20045;-93
2023/10/22 09:23:33;;;;;;;0.20;0.20;;;;;;;;;;4882095;29;20394;-93
2023/10/22 09:26:02;;;;;;;0.10;0.10;;;;;;;;;;4866580;29;20052;-95
2023/10/22 09:28:29;;;;;;;0.10;0.10;;;;;;;;;;4866535;29;20131;-94
2023/10/22 09:30:56;;;;;;;0.10;0.10;;;;;;;;;;4867018;29;20048;-94
2023/10/22 09:33:31;;;;;;;0.10;0.10;;;;;;;;;;4866650;29;20045;-89
2023/10/22 09:36:03;;;;;;;0.10;0.10;;;;;;;;;;4865176;29;20097;-90
2023/10/22 09:38:42;;;;;;;0.10;0.10;;;;;;;;;;4880833;29;20037;-90
2023/10/22 09:44:00;;;;;;;0.10;0.10;;;;;;;;;;5156069;23;20064;-91
2023/10/22 09:46:33;;;;;;;0.20;0.20;;;;;;;;;;4899684;29;20438;-90
2023/10/22 09:48:59;;;;;;;0.10;0.10;;;;;;;;;;4900033;29;20047;-90
2023/10/22 09:51:38;;;;;;;0.10;0.10;;;;;;;;;;4902505;29;20414;-96
2023/10/22 09:54:05;;;;;;;0.10;0.10;;;;;;;;;;4889695;29;20040;-95
2023/10/22 09:56:39;;;;;;;0.10;0.10;;;;;;;;;;4891385;29;20047;-95
2023/10/22 09:59:08;;;;;;;0.10;0.10;;;;;;;;;;4917254;29;20048;-91
2023/10/22 10:01:36;;;;;;;0.10;0.10;;;;;;;;;;4900325;29;20040;-93
2023/10/22 10:04:04;;;;;;;0.10;0.10;;;;;;;;;;4877040;29;20040;-94
2023/10/22 10:06:31;;;;;;;0.10;0.10;;;;;;;;;;4884801;29;20036;-92
2023/10/22 10:08:57;;;;;;;0.17;0.17;;;;;;;;;;4884445;29;20075;-93
2023/10/22 10:11:26;;;;;;;0.32;0.32;;;;;;;;;;4901300;29;20474;-94
2023/10/22 10:13:52;;;;;;;0.10;0.10;;;;;;;;;;4886097;29;20521;-91
2023/10/22 10:16:24;;;;;;;0.10;0.10;;;;;;;;;;4889514;29;20086;-93
2023/10/22 10:19:09;;;;;;;0.20;0.20;;;;;;;;;;5491313;23;20876;-93
2023/10/22 10:21:36;;;;;;;0.10;0.10;;;;;;;;;;4907896;29;20066;-94
2023/10/22 10:24:28;;;;;;;0.10;0.10;;;;;;;;;;4924338;29;20048;-93
2023/10/22 10:27:19;;;;;;;0.10;0.10;;;;;;;;;;4930530;29;20397;-94
2023/10/22 10:30:10;;;;;;;0.10;0.10;;;;;;;;;;4922600;29;20043;-95
2023/10/22 10:32:41;;;;;;;0.10;0.10;;;;;;;;;;4922563;29;20043;-94
2023/10/22 10:35:07;;;;;;;0.10;0.10;;;;;;;;;;4907627;29;20047;-96
2023/10/22 10:37:33;;;;;;;0.10;0.10;;;;;;;;;;4907175;29;20598;-92
2023/10/22 10:40:00;;;;;;;0.13;0.13;;;;;;;;;;4906650;29;20039;-94
2023/10/22 10:42:29;;;;;;;0.10;0.10;;;;;;;;;;4907297;29;20039;-95
2023/10/22 10:44:55;;;;;;;0.10;0.10;;;;;;;;;;4922749;29;20040;-93
2023/10/22 10:47:40;;;;;;;0.10;0.10;;;;;;;;;;4924525;29;20044;-93
2023/10/22 10:50:12;;;;;;;0.10;0.10;;;;;;;;;;4915187;29;20043;-94
2023/10/22 10:52:41;;;;;;;0.10;0.10;;;;;;;;;;4924097;29;20152;-91
2023/10/22 10:55:11;;;;;;;0.10;0.10;;;;;;;;;;4921270;29;20091;-90
2023/10/22 10:57:38;;;;;;;0.10;0.10;;;;;;;;;;4906019;29;20044;-90
2023/10/22 11:00:04;;;;;;;0.10;0.10;;;;;;;;;;4905797;29;20049;-90
2023/10/22 11:02:39;;;;;;;0.10;0.10;;;;;;;;;;4921894;29;20054;-91
2023/10/22 11:05:06;;;;;;;0.10;0.10;;;;;;;;;;4905875;29;20035;-92
2023/10/22 11:07:33;;;;;;;0.10;0.10;;;;;;;;;;4920905;29;20055;-90
2023/10/22 11:09:59;;;;;;;0.10;0.10;;;;;;;;;;4906096;29;20079;-93
2023/10/22 11:12:25;;;;;;;0.10;0.10;;;;;;;;;;4921187;29;20079;-91
2023/10/22 11:15:03;;;;;;;0.10;0.10;;;;;;;;;;4905747;29;20083;-91
2023/10/22 11:17:29;;;;;;;0.15;0.15;;;;;;;;;;4906744;29;20539;-90
2023/10/22 11:19:55;;;;;;;0.10;0.10;;;;;;;;;;4905801;29;20139;-91
2023/10/22 11:22:21;;;;;;;0.10;0.10;;;;;;;;;;4905486;29;20118;-91
2023/10/22 11:24:47;;;;;;;0.20;0.20;;;;;;;;;;4905782;29;20044;-92
2023/10/22 11:27:13;;;;;;;0.10;0.10;;;;;;;;;;4921738;29;20042;-91
2023/10/22 11:29:40;;;;;;;0.10;0.10;;;;;;;;;;4905799;29;20052;-91
2023/10/22 11:32:10;;;;;;;0.10;0.10;;;;;;;;;;4906419;29;20552;-92
2023/10/22 11:34:36;;;;;;;0.10;0.10;;;;;;;;;;4906855;29;20045;-93
2023/10/22 11:37:02;;;;;;;0.10;0.10;;;;;;;;;;4923705;29;20042;-94
2023/10/22 11:39:33;;;;;;;0.10;0.10;;;;;;;;;;4906948;29;20043;-90
2023/10/22 11:41:59;;;;;;;0.10;0.10;;;;;;;;;;4906575;29;20054;-89
2023/10/22 11:44:32;;;;;;;0.10;0.10;;;;;;;;;;4912980;29;20044;-89
2023/10/22 11:47:01;;;;;;;0.10;0.10;;;;;;;;;;4930924;29;20079;-90
2023/10/22 11:49:27;;;;;;;0.15;0.15;;;;;;;;;;4912841;29;20049;-90
2023/10/22 11:51:53;;;;;;;0.10;0.10;;;;;;;;;;4904886;29;20573;-91
2023/10/22 11:54:20;;;;;;;0.10;0.10;;;;;;;;;;4904780;29;20055;-91
2023/10/22 11:56:47;;;;;;;0.10;0.10;;;;;;;;;;4904784;29;20128;-90
2023/10/22 11:59:13;;;;;;;0.10;0.10;;;;;;;;;;4904629;29;20086;-90
2023/10/22 12:01:40;;;;;;;0.20;0.20;;;;;;;;;;4904490;29;20075;-90
2023/10/22 12:04:06;;;;;;;0.10;0.10;;;;;;;;;;4904324;29;20070;-90
2023/10/22 12:06:32;;;;;;;0.10;0.10;;;;;;;;;;4904670;29;20051;-91
2023/10/22 12:09:01;;;;;;;0.20;0.20;;;;;;;;;;4905689;29;20043;-95
2023/10/22 12:11:27;;;;;;;0.10;0.10;;;;;;;;;;4892148;29;20111;-90
2023/10/22 12:13:53;;;;;;;0.10;0.10;;;;;;;;;;4919907;29;20058;-91
2023/10/22 12:16:19;;;;;;;0.10;0.10;;;;;;;;;;4919960;29;20043;-90
2023/10/22 12:18:45;;;;;;;0.35;0.35;;;;;;;;;;4904212;29;20126;-91
2023/10/22 12:21:40;;;;;;;0.20;0.20;;;;;;;;;;4924807;29;20040;-93
2023/10/22 12:24:07;;;;;;;0.10;0.10;;;;;;;;;;4890906;29;20044;-91
2023/10/22 12:26:33;;;;;;;0.10;0.10;;;;;;;;;;4920103;29;20119;-92
2023/10/22 12:28:59;;;;;;;0.10;0.10;;;;;;;;;;4905144;29;20111;-91
2023/10/22 12:31:25;;;;;;;0.10;0.10;;;;;;;;;;4904613;29;20049;-94
2023/10/22 12:33:51;;;;;;;0.10;0.10;;;;;;;;;;4904309;29;20123;-93
2023/10/22 12:36:17;;;;;;;0.10;0.10;;;;;;;;;;4904449;29;20040;-92
2023/10/22 12:38:43;;;;;;;0.10;0.10;;;;;;;;;;4904486;29;20070;-92
2023/10/22 12:41:09;;;;;;;0.10;0.10;;;;;;;;;;4904592;29;20107;-92
2023/10/22 12:43:35;;;;;;;0.10;0.10;;;;;;;;;;4904179;29;20044;-92
2023/10/22 12:46:04;;;;;;;0.10;0.10;;;;;;;;;;4904337;29;20055;-94
2023/10/22 12:48:30;;;;;;;0.10;0.10;;;;;;;;;;4903892;29;20392;-90
2023/10/22 12:50:56;;;;;;;0.10;0.10;;;;;;;;;;4919563;29;20135;-91
2023/10/22 12:53:23;;;;;;;0.10;0.10;;;;;;;;;;4903943;29;20048;-91
2023/10/22 12:55:55;;;;;;;0.10;0.10;;;;;;;;;;4904003;29;20069;-91
2023/10/22 12:58:22;;;;;;;0.10;0.10;;;;;;;;;;4903880;29;20036;-92
2023/10/22 13:00:48;;;;;;;0.20;0.20;;;;;;;;;;4911197;29;20044;-90
2023/10/22 13:03:14;;;;;;;0.10;0.10;;;;;;;;;;4904113;29;20104;-91
2023/10/22 13:05:41;;;;;;;0.10;0.10;;;;;;;;;;4903763;29;20071;-93
2023/10/22 13:08:07;;;;;;;0.10;0.10;;;;;;;;;;4903814;29;20051;-91
2023/10/22 13:10:34;;;;;;;0.10;0.10;;;;;;;;;;4903768;29;20050;-91
2023/10/22 13:13:00;;;;;;;0.10;0.10;;;;;;;;;;4903615;29;20043;-92
2023/10/22 13:15:26;;;;;;;0.10;0.10;;;;;;;;;;4903956;29;20044;-91
2023/10/22 13:17:53;;;;;;;0.20;0.20;;;;;;;;;;4903619;29;20393;-93
2023/10/22 13:20:19;;;;;;;0.10;0.10;;;;;;;;;;4900373;29;20416;-89
2023/10/22 13:22:45;;;;;;;0.10;0.10;;;;;;;;;;4916724;29;20052;-89
2023/10/22 13:25:11;;;;;;;0.10;0.10;;;;;;;;;;4918582;29;20051;-89
2023/10/22 13:27:37;;;;;;;0.10;0.10;;;;;;;;;;4918284;29;20044;-90
2023/10/22 13:30:04;;;;;;;0.10;0.10;;;;;;;;;;4902923;29;20080;-90
2023/10/22 13:32:30;;;;;;;0.10;0.10;;;;;;;;;;4902672;29;20130;-90
2023/10/22 13:34:56;;;;;;;0.10;0.10;;;;;;;;;;4918172;29;20393;-90
2023/10/22 13:37:22;;;;;;;0.10;0.10;;;;;;;;;;4918042;29;20065;-90
2023/10/22 13:39:48;;;;;;;0.10;0.10;;;;;;;;;;4917831;29;20051;-88
2023/10/22 13:42:15;;;;;;;0.10;0.10;;;;;;;;;;4902759;29;20043;-89
2023/10/22 13:44:43;;;;;;;0.10;0.10;;;;;;;;;;4901149;29;20484;-89
2023/10/22 13:47:10;;;;;;;0.13;0.13;;;;;;;;;;4902146;29;20144;-88
2023/10/22 13:49:36;;;;;;;0.10;0.10;;;;;;;;;;4898628;29;20170;-89
2023/10/22 13:52:03;;;;;;;0.10;0.10;;;;;;;;;;4898961;29;20055;-89
2023/10/22 13:54:30;;;;;;;0.10;0.10;;;;;;;;;;4899953;29;20051;-89
2023/10/22 13:56:56;;;;;;;0.10;0.10;;;;;;;;;;4902462;29;20043;-90
2023/10/22 13:59:22;;;;;;;0.10;0.10;;;;;;;;;;4902177;29;20493;-91
2023/10/22 14:01:48;;;;;;;0.10;0.10;;;;;;;;;;4903707;29;20104;-91
2023/10/22 14:04:13;;;;;;;0.10;0.10;;;;;;;;;;4903150;29;20048;-91
2023/10/22 14:06:40;;;;;;;0.10;0.10;;;;;;;;;;4887597;29;20405;-91
2023/10/22 14:09:05;;;;;;;0.70;0.20;;;;;;;;;;4888262;29;20149;-93
2023/10/22 14:11:31;;;;;;;0.10;0.10;;;;;;;;;;4903418;29;20083;-91
2023/10/22 14:13:58;;;;;;;0.10;0.10;;;;;;;;;;4888333;29;20107;-91
2023/10/22 14:16:24;;;;;;;0.10;0.10;;;;;;;;;;4872562;29;20091;-91
2023/10/22 14:18:50;;;;;;;0.10;0.10;;;;;;;;;;4887592;29;20486;-92
2023/10/22 14:21:18;;;;;;;0.10;0.10;;;;;;;;;;4926646;29;20175;-92
2023/10/22 14:23:44;;;;;;;0.10;0.10;;;;;;;;;;4903016;29;20108;-92
2023/10/22 14:26:10;;;;;;;0.10;0.10;;;;;;;;;;4904239;29;20080;-92
2023/10/22 14:28:37;;;;;;;0.20;0.20;;;;;;;;;;4903451;29;20048;-93
2023/10/22 14:31:06;;;;;;;0.20;0.20;;;;;;;;;;4894374;29;20054;-91
2023/10/22 14:33:32;;;;;;;0.10;0.10;;;;;;;;;;4890684;29;20098;-93
2023/10/22 14:36:01;;;;;;;0.10;0.10;;;;;;;;;;4901145;29;20043;-93
2023/10/22 14:38:28;;;;;;;0.20;0.20;;;;;;;;;;4888347;29;20035;-93
2023/10/22 14:40:54;;;;;;;0.10;0.10;;;;;;;;;;4886997;29;20032;-90
2023/10/22 14:43:19;;;;;;;0.10;0.10;;;;;;;;;;4886793;29;20409;-91
2023/10/22 14:45:46;;;;;;;0.17;0.17;;;;;;;;;;4887348;29;20052;-92
2023/10/22 14:48:12;;;;;;;0.10;0.10;;;;;;;;;;4871505;29;20048;-93